Time;durP1;ratioP1;P1;durP2;ratioP2;P2;SDS_P1;SDS_P2;PMS_P1;PMS_P2;Temp;Humidity;BMP_temperature;BMP_pressure;BME280_temperature;BME280_humidity;BME280_pressure;Samples;Min_cycle;Max_cycle;Signal;HPM_P1;HPM_P2
2022/10/16 00:01:28;;;;;;;5.50;3.37;;;14.00;1.00;;;;;;5013579;28;20293;-67
2022/10/16 00:03:57;;;;;;;9.07;3.13;;;14.00;1.00;;;;;;5000351;28;20637;-67
2022/10/16 00:06:25;;;;;;;5.80;3.20;;;14.00;1.00;;;;;;5030173;28;20235;-67
2022/10/16 00:08:52;;;;;;;6.17;3.30;;;14.00;1.00;;;;;;4999602;28;20684;-66
2022/10/16 00:11:25;;;;;;;9.30;3.43;;;14.00;1.00;;;;;;5031378;28;20215;-66
2022/10/16 00:13:59;;;;;;;9.20;3.10;;;14.00;1.00;;;;;;4999914;28;20193;-65
2022/10/16 00:16:27;;;;;;;5.30;3.13;;;14.00;1.00;;;;;;4996677;28;20228;-66
2022/10/16 00:18:57;;;;;;;7.55;3.28;;;13.90;1.00;;;;;;4998913;28;20208;-66
2022/10/16 00:21:26;;;;;;;5.33;3.37;;;13.90;1.00;;;;;;4999346;28;20211;-66
2022/10/16 00:23:59;;;;;;;6.43;3.40;;;13.80;1.00;;;;;;5030832;28;20870;-66
2022/10/16 00:26:28;;;;;;;5.97;3.27;;;13.90;1.00;;;;;;5030392;28;20235;-68
2022/10/16 00:28:55;;;;;;;5.97;3.13;;;13.90;1.00;;;;;;4998971;28;20293;-66
2022/10/16 00:31:24;;;;;;;9.47;3.40;;;13.90;1.00;;;;;;4998123;28;20200;-66
2022/10/16 00:33:51;;;;;;;7.90;3.13;;;13.80;1.00;;;;;;4998057;28;20193;-67
2022/10/16 00:36:22;;;;;;;5.17;3.40;;;13.80;1.00;;;;;;4999485;28;20199;-66
2022/10/16 00:38:57;;;;;;;6.20;3.30;;;13.80;1.00;;;;;;5030971;28;20715;-66
2022/10/16 00:41:24;;;;;;;6.60;3.43;;;13.80;1.00;;;;;;5031592;28;20219;-67
2022/10/16 00:43:56;;;;;;;7.57;3.17;;;13.80;1.00;;;;;;5015278;28;20303;-66
2022/10/16 00:46:27;;;;;;;10.20;3.50;;;13.70;1.00;;;;;;4998868;28;20205;-66
2022/10/16 00:49:19;;;;;;;6.70;3.70;;;13.80;1.00;;;;;;4999228;28;20250;-65
2022/10/16 00:51:50;;;;;;;6.87;3.20;;;13.80;1.00;;;;;;4998049;28;20197;-66
2022/10/16 00:54:29;;;;;;;5.27;3.00;;;13.80;1.00;;;;;;5027444;28;20209;-68
2022/10/16 00:56:59;;;;;;;7.10;2.63;;;13.80;1.00;;;;;;5013681;28;20288;-65
2022/10/16 00:59:29;;;;;;;7.90;3.43;;;13.70;1.00;;;;;;4997214;28;20240;-66
2022/10/16 01:01:58;;;;;;;8.37;3.20;;;13.80;1.00;;;;;;5000036;28;20199;-66
2022/10/16 01:04:26;;;;;;;4.53;2.90;;;13.70;1.00;;;;;;4997555;28;20397;-66
2022/10/16 01:07:06;;;;;;;5.50;3.10;;;13.70;1.00;;;;;;4996510;28;20245;-65
2022/10/16 01:09:45;;;;;;;4.00;3.00;;;13.70;1.00;;;;;;5013668;28;20664;-66
2022/10/16 01:12:35;;;;;;;4.30;2.93;;;13.70;1.00;;;;;;5014678;28;20193;-66
2022/10/16 01:15:36;;;;;;;4.83;2.90;;;13.70;1.00;;;;;;5013428;28;20193;-67
2022/10/16 01:18:18;;;;;;;8.43;3.17;;;13.70;1.00;;;;;;4998399;28;20730;-66
2022/10/16 01:21:05;;;;;;;5.70;3.13;;;13.70;1.00;;;;;;4998509;28;20217;-66
2022/10/16 01:24:09;;;;;;;6.67;2.87;;;13.70;1.00;;;;;;4997720;28;20541;-66
2022/10/16 01:26:57;;;;;;;4.03;2.80;;;13.70;99.90;;;;;;4997635;28;20209;-67
2022/10/16 01:29:44;;;;;;;10.67;2.77;;;13.60;99.90;;;;;;5023538;28;20225;-66
2022/10/16 01:32:36;;;;;;;6.60;3.03;;;13.60;1.00;;;;;;5021642;28;20211;-67
2022/10/16 01:35:17;;;;;;;6.30;2.63;;;13.60;1.00;;;;;;4997249;28;20193;-67
2022/10/16 01:37:48;;;;;;;4.87;2.73;;;13.70;99.90;;;;;;4996130;28;20211;-67
2022/10/16 01:40:19;;;;;;;4.13;2.70;;;13.80;99.90;;;;;;4997787;28;20247;-66
2022/10/16 01:42:51;;;;;;;3.87;2.37;;;13.80;99.90;;;;;;4998805;28;20208;-65
2022/10/16 01:45:20;;;;;;;3.80;2.50;;;13.70;99.90;;;;;;4998040;28;20201;-66
2022/10/16 01:47:49;;;;;;;5.97;2.33;;;13.70;99.90;;;;;;5011112;28;20201;-65
2022/10/16 01:50:19;;;;;;;10.93;2.90;;;13.70;99.90;;;;;;5014360;28;20415;-65
2022/10/16 01:52:51;;;;;;;7.60;2.37;;;13.80;99.90;;;;;;5029076;28;20204;-66
2022/10/16 01:55:26;;;;;;;4.70;2.27;;;13.70;99.90;;;;;;4998561;28;20196;-66
2022/10/16 01:57:54;;;;;;;6.73;2.60;;;13.70;99.90;;;;;;5030023;28;20681;-65
2022/10/16 02:00:23;;;;;;;3.97;2.10;;;13.80;59.00;;;;;;5004793;28;20736;-65
2022/10/16 02:02:54;;;;;;;5.33;2.37;;;13.70;10.30;;;;;;4996383;28;20236;-67
2022/10/16 02:05:51;;;;;;;2.90;1.87;;;13.80;1.00;;;;;;4997261;28;20200;-66
2022/10/16 02:08:19;;;;;;;5.90;2.17;;;13.90;1.00;;;;;;5029919;28;20284;-65
2022/10/16 02:10:46;;;;;;;4.07;2.40;;;13.80;1.00;;;;;;4998352;28;20229;-65
2022/10/16 02:13:52;;;;;;;2.77;2.10;;;13.80;1.00;;;;;;5011244;28;21023;-66
2022/10/16 02:16:19;;;;;;;2.93;2.20;;;13.80;1.00;;;;;;5003793;28;20247;-65
2022/10/16 02:18:47;;;;;;;5.13;2.40;;;13.70;1.00;;;;;;4997663;28;20212;-66
2022/10/16 02:21:28;;;;;;;4.33;2.30;;;13.60;1.00;;;;;;4995702;28;20236;-66
2022/10/16 02:24:00;;;;;;;7.60;2.20;;;13.60;32.50;;;;;;4994470;28;20200;-65
2022/10/16 02:26:44;;;;;;;3.93;2.20;;;13.60;1.00;;;;;;4996805;28;20185;-66
2022/10/16 02:29:15;;;;;;;4.73;2.00;;;13.60;85.90;;;;;;5005540;28;20615;-66
2022/10/16 02:31:47;;;;;;;5.00;2.57;;;13.60;39.60;;;;;;5012685;28;20642;-65
2022/10/16 02:34:16;;;;;;;4.33;2.20;;;13.60;1.00;;;;;;5030665;28;20228;-67
2022/10/16 02:36:44;;;;;;;5.00;2.40;;;13.60;99.90;;;;;;4999699;28;20197;-65
2022/10/16 02:39:11;;;;;;;4.73;1.90;;;13.60;16.20;;;;;;5005804;28;20558;-67
2022/10/16 02:41:38;;;;;;;4.73;2.00;;;13.60;9.90;;;;;;5007421;28;20209;-67
2022/10/16 02:44:05;;;;;;;3.17;1.90;;;13.60;61.60;;;;;;5001067;28;20228;-65
2022/10/16 02:46:32;;;;;;;5.10;2.13;;;13.50;99.90;;;;;;5034476;28;20204;-66
2022/10/16 02:48:59;;;;;;;4.37;2.00;;;13.60;64.60;;;;;;5034920;28;20433;-66
2022/10/16 02:51:26;;;;;;;4.93;2.47;;;13.60;99.90;;;;;;5001968;28;20196;-65
2022/10/16 02:53:53;;;;;;;5.50;2.00;;;13.60;99.90;;;;;;4990163;28;20200;-65
2022/10/16 02:56:20;;;;;;;4.43;2.13;;;13.60;50.20;;;;;;5019015;28;20197;-66
2022/10/16 02:58:47;;;;;;;5.70;2.27;;;13.70;1.00;;;;;;5036331;28;20204;-68
2022/10/16 03:01:16;;;;;;;4.63;2.33;;;13.80;1.00;;;;;;5000684;28;20695;-68
2022/10/16 03:03:43;;;;;;;2.43;2.20;;;13.90;1.00;;;;;;5032903;28;20205;-68
2022/10/16 03:06:11;;;;;;;2.97;1.93;;;13.90;1.00;;;;;;5001901;28;20307;-66
2022/10/16 03:08:38;;;;;;;6.37;1.80;;;13.90;1.00;;;;;;5034074;28;20752;-66
2022/10/16 03:11:05;;;;;;;3.40;1.83;;;13.90;1.00;;;;;;5033471;28;20215;-66
2022/10/16 03:13:32;;;;;;;2.53;2.00;;;13.90;1.00;;;;;;5035148;28;20756;-66
2022/10/16 03:15:59;;;;;;;5.17;2.00;;;14.00;1.00;;;;;;5016770;28;20198;-67
2022/10/16 03:18:26;;;;;;;2.93;1.70;;;14.00;1.00;;;;;;5000996;28;20212;-65
2022/10/16 03:20:53;;;;;;;3.20;2.00;;;14.10;99.90;;;;;;5035604;28;20228;-66
2022/10/16 03:23:20;;;;;;;3.47;1.90;;;14.10;99.90;;;;;;5005035;28;20197;-66
2022/10/16 03:25:47;;;;;;;2.50;1.87;;;14.10;99.90;;;;;;5003204;28;20232;-66
2022/10/16 03:28:14;;;;;;;2.60;1.80;;;14.10;99.90;;;;;;5004183;28;20246;-67
2022/10/16 03:30:43;;;;;;;3.53;1.70;;;14.20;99.90;;;;;;5002804;28;20742;-66
2022/10/16 03:33:10;;;;;;;4.17;1.53;;;14.20;99.90;;;;;;5033609;28;20200;-67
2022/10/16 03:35:37;;;;;;;2.40;1.90;;;14.20;99.90;;;;;;4999389;28;20732;-66
2022/10/16 03:38:04;;;;;;;2.40;1.73;;;14.20;99.90;;;;;;4998502;28;20201;-67
2022/10/16 03:40:34;;;;;;;4.60;1.60;;;14.20;99.90;;;;;;5014626;28;20194;-66
2022/10/16 03:43:01;;;;;;;6.15;1.55;;;14.20;99.90;;;;;;5013723;28;20231;-66
2022/10/16 03:45:28;;;;;;;3.30;2.03;;;14.20;99.90;;;;;;4999657;28;20645;-66
2022/10/16 03:47:55;;;;;;;2.60;1.50;;;14.20;99.90;;;;;;5000164;28;20587;-66
2022/10/16 03:50:22;;;;;;;2.10;1.63;;;14.20;96.50;;;;;;5015437;28;20565;-66
2022/10/16 03:52:49;;;;;;;1.73;1.52;;;14.20;63.50;;;;;;5014454;28;20304;-66
2022/10/16 03:55:16;;;;;;;2.28;1.70;;;14.20;99.90;;;;;;5000762;28;20593;-65
2022/10/16 03:57:43;;;;;;;3.40;1.87;;;14.20;10.60;;;;;;4999360;28;20207;-65
2022/10/16 04:00:11;;;;;;;6.03;1.80;;;14.20;7.70;;;;;;5000979;28;20267;-66
2022/10/16 04:02:39;;;;;;;3.78;1.77;;;14.30;1.00;;;;;;4995106;28;20204;-66
2022/10/16 04:05:07;;;;;;;3.80;1.67;;;14.30;1.00;;;;;;5017378;28;20233;-66
2022/10/16 04:07:34;;;;;;;4.05;1.83;;;14.30;1.00;;;;;;5030383;28;20245;-68
2022/10/16 04:10:01;;;;;;;1.88;1.40;;;14.40;1.00;;;;;;5011705;28;20221;-66
2022/10/16 04:12:28;;;;;;;1.40;1.30;;;14.30;1.00;;;;;;4996789;28;20244;-66
2022/10/16 04:14:55;;;;;;;2.15;1.60;;;14.30;1.00;;;;;;5000692;28;20456;-66
2022/10/16 04:17:22;;;;;;;1.80;1.50;;;14.30;1.00;;;;;;4999179;28;20205;-66
2022/10/16 04:19:50;;;;;;;2.65;1.35;;;14.30;1.00;;;;;;4995153;28;20251;-66
2022/10/16 04:22:17;;;;;;;6.13;1.63;;;14.30;1.00;;;;;;5000188;28;20205;-67
2022/10/16 04:24:44;;;;;;;1.60;1.50;;;14.20;1.00;;;;;;5015505;28;20221;-65
2022/10/16 04:27:11;;;;;;;2.63;1.60;;;14.20;1.00;;;;;;4999619;28;20247;-67
2022/10/16 04:29:37;;;;;;;4.57;1.80;;;14.10;57.00;;;;;;5011917;28;20214;-66
2022/10/16 04:32:04;;;;;;;2.77;1.73;;;13.90;99.90;;;;;;4995816;28;20237;-66
2022/10/16 04:34:32;;;;;;;1.50;1.30;;;13.90;99.90;;;;;;5004957;28;20202;-66
2022/10/16 04:36:59;;;;;;;3.23;1.47;;;13.80;99.90;;;;;;4997443;28;20201;-67
2022/10/16 04:39:26;;;;;;;3.40;1.40;;;13.70;99.90;;;;;;5029496;28;20319;-67
2022/10/16 04:41:52;;;;;;;1.53;1.43;;;13.70;99.90;;;;;;5028168;28;20538;-68
2022/10/16 04:44:19;;;;;;;3.10;1.93;;;13.70;1.00;;;;;;4997068;28;20672;-68
2022/10/16 04:46:46;;;;;;;6.10;1.80;;;13.70;99.90;;;;;;5031588;28;20697;-67
2022/10/16 04:49:13;;;;;;;4.53;1.83;;;13.70;99.90;;;;;;5029579;28;20867;-68
2022/10/16 04:51:40;;;;;;;6.33;1.77;;;13.70;99.90;;;;;;5000709;28;20596;-67
2022/10/16 04:54:09;;;;;;;4.67;1.67;;;13.70;99.90;;;;;;5012642;28;20305;-65
2022/10/16 04:56:42;;;;;;;2.80;2.07;;;13.50;1.00;;;;;;4995998;28;20207;-67
2022/10/16 04:59:10;;;;;;;2.17;1.67;;;13.60;1.00;;;;;;4995981;28;20197;-67
2022/10/16 05:01:37;;;;;;;7.17;1.77;;;13.60;1.00;;;;;;5013310;28;20276;-67
2022/10/16 05:04:04;;;;;;;2.23;1.83;;;13.60;1.00;;;;;;5009406;28;20300;-67
2022/10/16 05:06:31;;;;;;;2.30;1.60;;;13.60;1.00;;;;;;4996033;28;20312;-67
2022/10/16 05:08:58;;;;;;;1.70;1.57;;;13.50;1.00;;;;;;5013777;28;20217;-67
2022/10/16 05:11:25;;;;;;;3.03;1.83;;;13.50;1.00;;;;;;5013377;28;20563;-66
2022/10/16 05:13:51;;;;;;;2.13;1.87;;;13.50;1.00;;;;;;5029147;28;20209;-66
2022/10/16 05:16:21;;;;;;;1.90;1.60;;;13.40;1.00;;;;;;4996302;28;20235;-66
2022/10/16 05:18:48;;;;;;;2.00;1.80;;;13.40;1.00;;;;;;5009424;28;20208;-66
2022/10/16 05:21:22;;;;;;;1.80;1.50;;;13.40;99.90;;;;;;5011846;28;20209;-66
2022/10/16 05:23:48;;;;;;;1.60;1.50;;;13.40;99.90;;;;;;4997437;28;20207;-66
2022/10/16 05:26:15;;;;;;;2.65;1.63;;;13.30;1.00;;;;;;5022102;28;20200;-66
2022/10/16 05:28:42;;;;;;;1.80;1.60;;;13.30;1.00;;;;;;4994515;28;20201;-66
2022/10/16 05:31:10;;;;;;;3.53;1.40;;;13.30;1.00;;;;;;5028953;28;20213;-66
2022/10/16 05:33:37;;;;;;;4.70;1.50;;;13.40;99.90;;;;;;5011945;28;20200;-67
2022/10/16 05:36:07;;;;;;;2.87;1.20;;;13.40;99.90;;;;;;5011282;28;20545;-68
2022/10/16 05:38:35;;;;;;;4.13;1.40;;;13.50;99.90;;;;;;5011282;28;20193;-66
2022/10/16 05:41:03;;;;;;;1.60;1.47;;;13.50;99.90;;;;;;4997404;28;20284;-67
2022/10/16 05:43:31;;;;;;;3.73;1.30;;;13.50;99.90;;;;;;4997126;28;20209;-67
2022/10/16 05:46:00;;;;;;;6.13;1.80;;;13.60;99.90;;;;;;5028552;28;20205;-67
2022/10/16 05:48:28;;;;;;;5.07;1.67;;;13.60;99.90;;;;;;4995304;28;20652;-66
2022/10/16 05:51:04;;;;;;;2.10;1.50;;;13.50;99.90;;;;;;5012309;28;20270;-66
2022/10/16 05:53:33;;;;;;;4.37;1.70;;;13.40;99.90;;;;;;5027970;28;20371;-65
2022/10/16 05:56:01;;;;;;;1.87;1.50;;;13.40;99.90;;;;;;5028987;28;20193;-65
2022/10/16 05:58:35;;;;;;;2.40;1.50;;;13.40;99.90;;;;;;4995175;28;20219;-66
2022/10/16 06:01:09;;;;;;;2.03;1.30;;;13.50;99.90;;;;;;5028421;28;20295;-66
2022/10/16 06:03:36;;;;;;;1.77;1.40;;;13.50;99.90;;;;;;5027690;28;20676;-66
2022/10/16 06:06:14;;;;;;;2.53;1.33;;;13.50;99.90;;;;;;4991194;28;20229;-66
2022/10/16 06:08:42;;;;;;;4.43;1.70;;;13.60;99.90;;;;;;5009570;28;20271;-66
2022/10/16 06:11:14;;;;;;;1.70;1.60;;;13.70;99.90;;;;;;5027785;28;20649;-68
2022/10/16 06:13:45;;;;;;;2.23;1.70;;;13.70;72.50;;;;;;5010726;28;20198;-68
2022/10/16 06:16:13;;;;;;;2.00;1.65;;;13.60;96.90;;;;;;5027609;28;20213;-66
2022/10/16 06:18:39;;;;;;;2.07;1.60;;;13.60;99.90;;;;;;4996275;28;20660;-67
2022/10/16 06:21:08;;;;;;;4.20;1.60;;;13.70;99.90;;;;;;4996462;28;20208;-67
2022/10/16 06:23:35;;;;;;;2.60;1.23;;;13.80;73.90;;;;;;5003351;28;20236;-67
2022/10/16 06:26:23;;;;;;;1.57;1.20;;;13.80;10.40;;;;;;5027872;28;20212;-67
2022/10/16 06:28:50;;;;;;;2.30;1.43;;;13.90;1.00;;;;;;4998018;28;20518;-67
2022/10/16 06:31:18;;;;;;;3.77;1.60;;;14.10;1.00;;;;;;4996735;28;20283;-66
2022/10/16 06:33:46;;;;;;;4.45;1.95;;;14.30;1.00;;;;;;5012181;28;20626;-66
2022/10/16 06:36:16;;;;;;;4.40;1.20;;;14.30;1.00;;;;;;4996447;28;20679;-67
2022/10/16 06:38:44;;;;;;;2.88;1.48;;;14.30;1.00;;;;;;5013515;28;20597;-67
2022/10/16 06:41:16;;;;;;;2.53;1.20;;;14.30;1.00;;;;;;4995340;28;20240;-66
2022/10/16 06:43:45;;;;;;;1.30;1.20;;;14.30;1.00;;;;;;5011883;28;20260;-67
2022/10/16 06:46:13;;;;;;;1.40;1.20;;;14.30;1.00;;;;;;4997759;28;20362;-67
2022/10/16 06:48:40;;;;;;;2.50;1.30;;;14.30;1.00;;;;;;4993903;28;20566;-66
2022/10/16 06:51:16;;;;;;;3.35;1.55;;;14.40;1.00;;;;;;5011884;28;20227;-66
2022/10/16 06:53:46;;;;;;;4.15;1.30;;;14.50;1.00;;;;;;5027811;28;20248;-65
2022/10/16 06:56:30;;;;;;;2.95;1.60;;;14.50;1.00;;;;;;4995368;28;20189;-67
2022/10/16 06:58:58;;;;;;;4.53;1.30;;;14.50;1.00;;;;;;5022729;28;20201;-66
2022/10/16 07:01:26;;;;;;;2.88;1.00;;;14.60;1.00;;;;;;4994398;28;20293;-65
2022/10/16 07:03:53;;;;;;;2.50;1.65;;;14.70;1.00;;;;;;4993642;28;20616;-68
2022/10/16 07:06:22;;;;;;;2.15;1.20;;;14.80;1.00;;;;;;4992566;28;20252;-68
2022/10/16 07:08:50;;;;;;;4.38;1.35;;;14.90;1.00;;;;;;5012795;28;20272;-67
2022/10/16 07:11:20;;;;;;;1.40;1.30;;;14.90;99.90;;;;;;4985662;28;20584;-67
2022/10/16 07:13:48;;;;;;;3.13;1.15;;;14.90;99.90;;;;;;4996214;28;20243;-67
2022/10/16 07:16:26;;;;;;;2.28;1.55;;;14.90;99.90;;;;;;5026347;28;20181;-67
2022/10/16 07:19:01;;;;;;;2.92;1.38;;;15.00;99.90;;;;;;4993544;28;20209;-68
2022/10/16 07:21:31;;;;;;;1.40;1.30;;;15.00;99.90;;;;;;5026461;28;20616;-66
2022/10/16 07:24:00;;;;;;;1.88;1.50;;;15.10;99.90;;;;;;4994950;28;20206;-66
2022/10/16 07:26:31;;;;;;;2.10;1.25;;;15.20;99.90;;;;;;4990615;28;20704;-66
2022/10/16 07:28:58;;;;;;;2.42;1.52;;;15.30;99.90;;;;;;4992780;28;20743;-67
2022/10/16 07:31:26;;;;;;;2.15;1.17;;;15.50;99.90;;;;;;5012587;28;20311;-67
2022/10/16 07:33:54;;;;;;;3.15;1.30;;;15.50;99.90;;;;;;4997613;28;20586;-67
2022/10/16 07:36:21;;;;;;;1.83;1.40;;;15.60;99.90;;;;;;4994038;28;20201;-68
2022/10/16 07:38:48;;;;;;;3.30;2.13;;;15.80;99.90;;;;;;4998986;28;20281;-66
2022/10/16 07:41:18;;;;;;;0.90;0.90;;;15.80;99.90;;;;;;5005720;28;20201;-65
2022/10/16 07:43:50;;;;;;;1.70;1.25;;;15.70;99.90;;;;;;5015097;28;20743;-65
2022/10/16 07:46:18;;;;;;;5.57;1.45;;;15.50;99.90;;;;;;4994604;28;20201;-66
2022/10/16 07:48:46;;;;;;;6.72;1.63;;;15.50;99.90;;;;;;4994613;28;20993;-66
2022/10/16 07:51:22;;;;;;;2.78;1.33;;;15.30;99.90;;;;;;5029169;28;20623;-66
2022/10/16 07:53:49;;;;;;;4.57;1.40;;;15.30;99.90;;;;;;4999223;28;20640;-66
2022/10/16 07:56:17;;;;;;;1.60;1.38;;;15.30;99.90;;;;;;5013410;28;20747;-65
2022/10/16 07:58:45;;;;;;;3.45;1.30;;;15.40;99.90;;;;;;5030715;28;20202;-65
2022/10/16 08:01:14;;;;;;;3.35;1.48;;;15.40;99.90;;;;;;5029939;28;20201;-65
2022/10/16 08:03:51;;;;;;;2.88;1.70;;;15.60;99.90;;;;;;4999401;28;20208;-66
2022/10/16 08:06:20;;;;;;;4.80;2.22;;;15.80;99.90;;;;;;5027684;28;20715;-67
2022/10/16 08:08:53;;;;;;;4.25;2.38;;;16.00;99.90;;;;;;5010934;28;20509;-66
2022/10/16 08:11:20;;;;;;;4.57;2.45;;;16.10;99.90;;;;;;5030722;28;20308;-66
2022/10/16 08:13:47;;;;;;;4.30;1.30;;;16.00;99.90;;;;;;5015376;28;20727;-66
2022/10/16 08:16:14;;;;;;;6.22;2.13;;;15.80;99.90;;;;;;4997117;28;20201;-67
2022/10/16 08:18:41;;;;;;;8.07;2.20;;;15.70;99.90;;;;;;5011728;28;20206;-68
2022/10/16 08:21:14;;;;;;;3.03;1.70;;;15.70;99.90;;;;;;5011424;28;20215;-66
2022/10/16 08:23:47;;;;;;;3.75;2.28;;;15.70;99.90;;;;;;5028790;28;20194;-67
2022/10/16 08:26:23;;;;;;;4.57;1.90;;;15.80;99.90;;;;;;4997026;28;20313;-67
2022/10/16 08:28:51;;;;;;;2.13;1.92;;;15.90;99.90;;;;;;5012161;28;20209;-65
2022/10/16 08:31:18;;;;;;;5.47;1.90;;;15.90;99.90;;;;;;4999273;28;20294;-67
2022/10/16 08:33:48;;;;;;;5.97;1.48;;;16.00;99.90;;;;;;5029695;28;20656;-66
2022/10/16 08:36:16;;;;;;;2.33;1.67;;;16.00;99.90;;;;;;4999141;28;20218;-69
2022/10/16 08:38:43;;;;;;;2.13;1.25;;;16.20;99.90;;;;;;5013540;28;20208;-67
2022/10/16 08:41:13;;;;;;;6.07;1.60;;;16.40;99.90;;;;;;4998255;28;20664;-66
2022/10/16 08:44:01;;;;;;;1.23;1.13;;;16.70;94.40;;;;;;5000696;28;20241;-67
2022/10/16 08:46:48;;;;;;;3.92;1.67;;;16.90;36.10;;;;;;4997598;28;20276;-70
2022/10/16 08:49:17;;;;;;;2.90;1.73;;;20.70;1.00;;;;;;5014502;28;20209;-67
2022/10/16 08:51:46;;;;;;;1.90;1.33;;;25.50;1.00;;;;;;5019307;28;20577;-68
2022/10/16 08:54:19;;;;;;;1.88;1.50;;;26.00;1.00;;;;;;5000264;28;20699;-66
2022/10/16 08:56:45;;;;;;;3.58;1.63;;;29.40;1.00;;;;;;4996285;28;20192;-67
2022/10/16 08:59:15;;;;;;;4.22;1.55;;;28.00;1.00;;;;;;5020934;28;20203;-67
2022/10/16 09:01:49;;;;;;;5.88;1.45;;;28.30;1.00;;;;;;5031735;28;20197;-67
2022/10/16 09:04:54;;;;;;;2.28;1.38;;;28.50;1.00;;;;;;5012741;28;20193;-68
2022/10/16 09:07:54;;;;;;;4.05;1.50;;;29.30;1.00;;;;;;5015555;28;20235;-69
2022/10/16 09:10:34;;;;;;;2.35;1.33;;;30.70;1.00;;;;;;5016038;28;20227;-67
2022/10/16 09:13:40;;;;;;;4.00;1.33;;;31.10;1.00;;;;;;4997574;28;20197;-67
2022/10/16 09:16:18;;;;;;;2.20;1.17;;;29.10;1.00;;;;;;4997175;28;20204;-68
2022/10/16 09:19:00;;;;;;;2.60;1.50;;;31.00;1.00;;;;;;5027603;28;20276;-66
2022/10/16 09:21:31;;;;;;;2.85;1.83;;;32.10;1.00;;;;;;5007468;28;20296;-67
2022/10/16 09:24:18;;;;;;;3.28;1.13;;;31.90;1.00;;;;;;5028757;28;20209;-67
2022/10/16 09:26:46;;;;;;;3.65;1.98;;;34.80;1.00;;;;;;5014275;28;20201;-67
2022/10/16 09:29:19;;;;;;;3.67;1.48;;;34.00;1.00;;;;;;4998855;28;20197;-69
2022/10/16 09:31:47;;;;;;;2.42;1.77;;;33.30;1.00;;;;;;4996492;28;20494;-69
2022/10/16 09:34:36;;;;;;;1.38;0.95;;;33.20;1.00;;;;;;4999245;28;20247;-69
2022/10/16 09:37:09;;;;;;;6.78;1.80;;;29.80;1.00;;;;;;4998311;28;20185;-69
2022/10/16 09:39:51;;;;;;;2.53;1.30;;;30.50;1.00;;;;;;5010568;28;20279;-69
2022/10/16 09:42:27;;;;;;;2.13;1.10;;;32.70;1.00;;;;;;5001699;28;20209;-70
2022/10/16 09:44:54;;;;;;;1.80;1.10;;;33.00;1.00;;;;;;4995424;28;20748;-69
2022/10/16 09:47:25;;;;;;;3.10;1.70;;;34.00;1.00;;;;;;5030150;28;20208;-68
2022/10/16 09:49:57;;;;;;;2.75;1.15;;;34.20;1.00;;;;;;5015984;28;20205;-68
2022/10/16 09:52:24;;;;;;;5.13;1.13;;;35.70;1.00;;;;;;5002400;28;20696;-69
2022/10/16 09:54:59;;;;;;;2.58;1.65;;;35.20;1.00;;;;;;4999411;28;20243;-68
2022/10/16 09:57:26;;;;;;;3.03;1.00;;;33.70;1.00;;;;;;4999832;28;20193;-69
2022/10/16 09:59:56;;;;;;;2.30;1.33;;;29.90;1.00;;;;;;4996260;28;20193;-70
2022/10/16 10:02:43;;;;;;;3.05;1.20;;;31.10;1.00;;;;;;4999028;28;20200;-69
2022/10/16 10:05:28;;;;;;;2.47;1.70;;;32.70;1.00;;;;;;4999371;28;20568;-69
2022/10/16 10:08:06;;;;;;;1.92;1.42;;;34.30;1.00;;;;;;4998262;28;20233;-69
2022/10/16 10:10:42;;;;;;;3.90;1.60;;;35.70;1.00;;;;;;4992722;28;20231;-68
2022/10/16 10:13:24;;;;;;;5.20;2.28;;;36.90;1.00;;;;;;4997631;28;20190;-69
2022/10/16 10:15:53;;;;;;;4.55;2.90;;;35.70;1.00;;;;;;5018476;28;20211;-69
2022/10/16 10:18:23;;;;;;;2.85;2.25;;;32.90;1.00;;;;;;5014868;28;20193;-69
2022/10/16 10:21:01;;;;;;;4.20;1.70;;;27.90;1.00;;;;;;4999873;28;20207;-69
2022/10/16 10:23:30;;;;;;;5.35;2.90;;;25.50;1.00;;;;;;4993401;28;20276;-68
2022/10/16 10:26:20;;;;;;;4.30;3.10;;;26.20;1.00;;;;;;4998707;28;20596;-69
2022/10/16 10:29:21;;;;;;;2.10;1.55;;;30.30;1.00;;;;;;4997555;28;20293;-68
2022/10/16 10:32:13;;;;;;;3.33;1.67;;;27.00;1.00;;;;;;4998687;28;20227;-68
2022/10/16 10:35:18;;;;;;;3.85;2.90;;;31.30;1.00;;;;;;5026290;28;20212;-68
2022/10/16 10:38:03;;;;;;;2.05;1.15;;;33.80;1.00;;;;;;5017543;28;20201;-68
2022/10/16 10:40:50;;;;;;;5.57;3.45;;;34.50;1.00;;;;;;5016988;28;20717;-68
2022/10/16 10:43:39;;;;;;;3.05;2.53;;;35.90;1.00;;;;;;5002694;28;20283;-69
2022/10/16 10:46:12;;;;;;;4.82;1.67;;;35.20;1.00;;;;;;5014423;28;20181;-69
2022/10/16 10:49:08;;;;;;;3.58;1.73;;;31.00;1.00;;;;;;4997847;28;20327;-68
2022/10/16 10:52:01;;;;;;;7.30;3.33;;;29.70;1.00;;;;;;4997694;28;20209;-73
2022/10/16 10:54:31;;;;;;;2.75;1.05;;;30.10;1.00;;;;;;4998938;28;20248;-69
2022/10/16 10:57:16;;;;;;;5.30;1.50;;;28.70;1.00;;;;;;4998879;28;20276;-68
2022/10/16 11:00:01;;;;;;;2.70;1.73;;;28.00;1.00;;;;;;4999682;28;20201;-68
2022/10/16 11:02:40;;;;;;;3.42;2.30;;;28.50;1.00;;;;;;4998994;28;20672;-69
2022/10/16 11:05:25;;;;;;;3.45;2.67;;;30.00;1.00;;;;;;5031768;28;20209;-69
2022/10/16 11:08:00;;;;;;;5.53;2.72;;;31.50;1.00;;;;;;5008068;28;20327;-68
2022/10/16 11:10:51;;;;;;;2.70;1.23;;;31.10;1.00;;;;;;5033730;28;20234;-69
2022/10/16 11:13:40;;;;;;;3.70;1.20;;;31.50;1.00;;;;;;5017424;28;20204;-69
2022/10/16 11:16:31;;;;;;;2.92;2.15;;;30.50;1.00;;;;;;4997693;28;20243;-68
2022/10/16 11:19:26;;;;;;;5.78;2.70;;;30.50;1.00;;;;;;5016948;28;20553;-68
2022/10/16 11:22:06;;;;;;;2.00;0.95;;;30.30;1.00;;;;;;5003991;28;20661;-68
2022/10/16 11:25:07;;;;;;;3.28;1.00;;;28.20;1.00;;;;;;5019350;28;20204;-68
2022/10/16 11:27:43;;;;;;;1.48;1.38;;;27.00;1.00;;;;;;5016746;28;20201;-68
2022/10/16 11:30:21;;;;;;;2.78;0.98;;;27.60;1.00;;;;;;5001617;28;20215;-68
2022/10/16 11:33:12;;;;;;;1.55;0.90;;;27.50;1.00;;;;;;5014190;28;20572;-68
2022/10/16 11:35:50;;;;;;;6.00;1.80;;;28.20;1.00;;;;;;5017062;28;20683;-68
2022/10/16 11:38:37;;;;;;;3.58;1.80;;;27.40;1.00;;;;;;4997335;28;20197;-68
2022/10/16 11:41:31;;;;;;;3.28;1.95;;;28.70;1.00;;;;;;5003493;28;20194;-68
2022/10/16 11:44:03;;;;;;;2.80;1.27;;;29.20;1.00;;;;;;5001352;28;20618;-68
2022/10/16 11:46:33;;;;;;;3.58;1.20;;;28.60;1.00;;;;;;5000557;28;20240;-68
2022/10/16 11:49:26;;;;;;;3.45;1.05;;;27.10;1.00;;;;;;5025037;28;20531;-68
2022/10/16 11:52:05;;;;;;;1.83;0.98;;;26.80;1.00;;;;;;5001389;28;20541;-68
2022/10/16 11:54:53;;;;;;;2.33;1.02;;;25.60;1.00;;;;;;5002646;28;20189;-68
2022/10/16 11:57:34;;;;;;;4.45;1.00;;;25.40;1.00;;;;;;5004372;28;20567;-68
2022/10/16 12:00:23;;;;;;;2.95;1.27;;;24.00;1.00;;;;;;4996765;28;20197;-68
2022/10/16 12:03:26;;;;;;;3.65;1.52;;;24.00;1.00;;;;;;5005305;28;20221;-68
2022/10/16 12:06:31;;;;;;;2.58;1.13;;;24.60;1.00;;;;;;5015514;28;20969;-68
2022/10/16 12:09:00;;;;;;;2.53;1.63;;;26.00;1.00;;;;;;5003264;28;20303;-68
2022/10/16 12:11:39;;;;;;;3.08;1.52;;;25.70;1.00;;;;;;5001986;28;20205;-69
2022/10/16 12:14:12;;;;;;;2.30;1.20;;;26.30;1.00;;;;;;5001052;28;20244;-68
2022/10/16 12:16:57;;;;;;;2.85;0.77;;;24.60;1.00;;;;;;4999837;28;20616;-67
2022/10/16 12:19:26;;;;;;;1.52;0.98;;;24.50;1.00;;;;;;5014943;28;20247;-68
2022/10/16 12:21:56;;;;;;;1.65;0.93;;;24.30;1.00;;;;;;5020750;28;20858;-68
2022/10/16 12:24:37;;;;;;;4.30;1.25;;;24.00;1.00;;;;;;5016700;28;20197;-68
2022/10/16 12:27:18;;;;;;;1.70;0.90;;;24.20;1.00;;;;;;5018151;28;20196;-68
2022/10/16 12:29:45;;;;;;;3.80;1.25;;;23.20;1.00;;;;;;4999948;28;20696;-68
2022/10/16 12:32:36;;;;;;;2.78;1.10;;;24.00;1.00;;;;;;5019015;28;20245;-68
2022/10/16 12:35:22;;;;;;;2.33;1.35;;;23.30;1.00;;;;;;5016846;28;20229;-67
2022/10/16 12:37:50;;;;;;;3.55;1.30;;;23.60;1.00;;;;;;5017823;28;20236;-68
2022/10/16 12:40:30;;;;;;;1.83;1.20;;;24.20;1.00;;;;;;5033876;28;20264;-68
2022/10/16 12:42:57;;;;;;;4.20;1.38;;;23.60;1.00;;;;;;5016094;28;20239;-68
2022/10/16 12:45:32;;;;;;;1.75;1.30;;;23.10;1.00;;;;;;5002031;28;20228;-68
2022/10/16 12:48:01;;;;;;;1.83;1.05;;;22.40;1.00;;;;;;5000956;28;20208;-68
2022/10/16 12:50:37;;;;;;;5.10;1.50;;;22.70;1.00;;;;;;4996479;28;20276;-68
2022/10/16 12:53:19;;;;;;;3.67;1.20;;;23.10;1.00;;;;;;5000549;28;20216;-69
2022/10/16 12:55:58;;;;;;;4.03;1.00;;;23.40;1.00;;;;;;5001113;28;20417;-68
2022/10/16 12:58:43;;;;;;;2.22;1.05;;;23.50;1.00;;;;;;5031680;28;20215;-69
2022/10/16 13:01:49;;;;;;;2.25;1.40;;;22.80;1.00;;;;;;5004021;28;20347;-70
2022/10/16 13:04:31;;;;;;;2.45;1.50;;;22.80;1.00;;;;;;5030214;28;20199;-67
2022/10/16 13:07:01;;;;;;;3.70;1.88;;;22.60;1.00;;;;;;4999906;28;20252;-68
2022/10/16 13:09:34;;;;;;;3.58;1.60;;;22.50;1.00;;;;;;4999305;28;20228;-67
2022/10/16 13:12:18;;;;;;;6.03;1.90;;;22.60;1.00;;;;;;5014555;28;20220;-68
2022/10/16 13:15:02;;;;;;;2.58;1.30;;;22.30;1.00;;;;;;5001085;28;20561;-68
2022/10/16 13:17:56;;;;;;;2.00;1.25;;;22.20;1.00;;;;;;5030495;28;20212;-70
2022/10/16 13:20:38;;;;;;;8.13;3.47;;;21.70;1.00;;;;;;4999121;28;20192;-68
2022/10/16 13:23:17;;;;;;;2.65;1.17;;;21.20;1.00;;;;;;5000925;28;20575;-68
2022/10/16 13:26:08;;;;;;;4.07;1.52;;;21.00;1.00;;;;;;5002762;28;20224;-69
2022/10/16 13:28:38;;;;;;;2.28;1.33;;;21.10;1.00;;;;;;4999040;28;20193;-69